WetterOnline ( https://www.wetteronline.de )

Wetter aktuell Bodenmais

Aktuelles Wetter: Großer Arber (1446m)

6-stündlich | Neueste Meldungen
Ortszeit Temperatur Wetter
Fr, 28.01. 7:00 -5.4° C Nebel
Fr, 28.01. 1:00 -4.3° C leichter Schneefall
Do, 27.01. 19:00 -6.0° C Schneegriesel
Do, 27.01. 13:00 0.1° C leicht bewölkt
Do, 27.01. 7:00 -1.9° C bedeckt
Do, 27.01. 1:00 -4.4° C bedeckt
Mi, 26.01. 19:00 -4.6° C Nebel
Mi, 26.01. 13:00 -3.2° C fast wolkenlos
Ortszeit Temperatur Wetter
Fr, 28.01. 7:30 -5.6° C Nebel
Fr, 28.01. 7:20 -5.6° C Nebel
Fr, 28.01. 7:10 -5.5° C Nebel
Fr, 28.01. 7:00 -5.4° C Nebel
Fr, 28.01. 6:50 -5.4° C Nebel
Fr, 28.01. 6:40 -5.2° C Nebel
Fr, 28.01. 6:30 -5.3° C Nebel
Fr, 28.01. 6:00 -5.4° C Nebel
Fr, 28.01. 5:30 -5.5° C Nebel
Fr, 28.01. 5:00 -5.0° C leichter Schneefall
Fr, 28.01. 4:30 -4.7° C leichter Schneefall
Ortszeit Relative Feuchte Sichtweite
Fr, 28.01. 7:00 96% <100 m
Fr, 28.01. 1:00 96% 100 m
Do, 27.01. 19:00 93% 100 m
Do, 27.01. 13:00 41% 8 km
Do, 27.01. 7:00 70% >70 km
Do, 27.01. 1:00 66% >70 km
Mi, 26.01. 19:00 77% >70 km
Mi, 26.01. 13:00 67% 55 km
Ortszeit Relative Feuchte Sichtweite
Fr, 28.01. 7:30 95% 100 m
Fr, 28.01. 7:20 95% -
Fr, 28.01. 7:10 95% -
Fr, 28.01. 7:00 96% <100 m
Fr, 28.01. 6:50 96% -
Fr, 28.01. 6:40 95% -
Fr, 28.01. 6:30 96% 100 m
Fr, 28.01. 6:00 94% 100 m
Fr, 28.01. 5:30 94% 0.2 km
Fr, 28.01. 5:00 95% 100 m
Fr, 28.01. 4:30 95% 100 m
Ortszeit Niederschlagsmenge Niederschlagsart
Fr, 28.01. 7:00 1 l/m2 in 12 Std. Schnee
Fr, 28.01. 1:00 0.4 l/m2 in 6 Std. Schnee
Do, 27.01. 19:00 0.1 l/m2 in 12 Std. Schnee, Niederschlag
Do, 27.01. 13:00 0.1 l/m2 in 6 Std. Schnee, Niederschlag
Do, 27.01. 7:00 0.0 l/m2 in 12 Std. -
Do, 27.01. 1:00 0.0 l/m2 in 6 Std. -
Mi, 26.01. 19:00 0.1 l/m2 in 12 Std. Schnee
Mi, 26.01. 13:00 0.0 l/m2 in 6 Std. -
Ortszeit Niederschlagsmenge Niederschlagsart
Fr, 28.01. 7:30 0.0 l/m2 in 1 Std. -
Fr, 28.01. 7:20 keine Meldung -
Fr, 28.01. 7:10 keine Meldung -
Fr, 28.01. 7:00 0.4 l/m2 in 1 Std. Schnee
Fr, 28.01. 6:50 keine Meldung -
Fr, 28.01. 6:40 keine Meldung -
Fr, 28.01. 6:30 0.1 l/m2 in 1 Std. -
Fr, 28.01. 6:00 0.1 l/m2 in 1 Std. Schnee
Fr, 28.01. 5:30 0.1 l/m2 in 1 Std. -
Fr, 28.01. 5:00 0.3 l/m2 in 1 Std. Schnee
Fr, 28.01. 4:30 0.3 l/m2 in 1 Std. -
Ortszeit Stärke Spitze Richtung
km/h Bft. km/h Grad Sektor
Fr, 28.01. 7:00 48 6 91 290° W
Fr, 28.01. 1:00 56 7 81 270° W
Do, 27.01. 19:00 59 7 83 260° W
Do, 27.01. 13:00 59 7 78 270° W
Do, 27.01. 7:00 47 6 61 260° W
Do, 27.01. 1:00 31 5 50 290° W
Mi, 26.01. 19:00 25 4 43 270° W
Mi, 26.01. 13:00 28 4 41 290° W
Ortszeit Stärke Spitze Richtung
km/h Bft. km/h Grad Sektor
Fr, 28.01. 7:30 47 6 83 290° W
Fr, 28.01. 7:20 47 6 - 290° W
Fr, 28.01. 7:10 47 6 - 290° W
Fr, 28.01. 7:00 48 6 78 290° W
Fr, 28.01. 6:50 48 6 - 290° W
Fr, 28.01. 6:40 43 6 - 290° W
Fr, 28.01. 6:30 41 6 74 290° W
Fr, 28.01. 6:00 54 7 90 300° NW
Fr, 28.01. 5:30 54 7 89 290° W
Fr, 28.01. 5:00 48 6 80 290° W
Fr, 28.01. 4:30 50 6 80 280° W
Ortszeit Untergrenze Bedeckung Gattung
total tief tief mittel hoch
Fr, 28.01. 7:00 <30 m 8/8 0/8 - - -
Fr, 28.01. 1:00 <30 m 8/8 0/8 - - -
Do, 27.01. 19:00 <30 m 8/8 0/8 - - -
Do, 27.01. 13:00 7800 m 5/8 0/8 - - -
Do, 27.01. 7:00 4800 m 8/8 8/8 - - -
Do, 27.01. 1:00 3600 m 8/8 8/8 - - -
Mi, 26.01. 19:00 5100 m 8/8 8/8 - - -
Mi, 26.01. 13:00 4800 m 1/8 1/8 - - -
Ortszeit Bedeckungsgrad in Achtel und Wolkenuntergrenze
Fr, 28.01. 7:30 8(<30m)
Fr, 28.01. 7:20 8(<30m)
Fr, 28.01. 7:10 8
Fr, 28.01. 7:00 8(<30m)
Fr, 28.01. 6:50 8(<30m)
Fr, 28.01. 6:40 8
Fr, 28.01. 6:30 8(<30m)
Fr, 28.01. 6:00 8(<30m)
Fr, 28.01. 5:30 7(<30m)
Fr, 28.01. 5:00 8(<30m)
Fr, 28.01. 4:30 8(<30m)
Ortszeit Stationsdruck (hPa) Tendenz (hPa in 3 Std.)
Fr, 28.01. 7:00 856 + 1,3
Fr, 28.01. 1:00 854 - 0,2
Do, 27.01. 19:00 854 - 0,8
Do, 27.01. 13:00 855 - 1,2
Do, 27.01. 7:00 857 - 0,9
Do, 27.01. 1:00 859 - 0,6
Mi, 26.01. 19:00 860 0,0
Mi, 26.01. 13:00 860 - 0,5
Ortszeit Stationsdruck (hPa) Tendenz (hPa in 3 Std.)
Fr, 28.01. 7:30 856 + 1,2
Fr, 28.01. 7:20 856 keine Meldung
Fr, 28.01. 7:10 856 keine Meldung
Fr, 28.01. 7:00 856 + 1,3
Fr, 28.01. 6:50 856 keine Meldung
Fr, 28.01. 6:40 856 keine Meldung
Fr, 28.01. 6:30 856 + 1,7
Fr, 28.01. 6:00 856 + 1,0
Fr, 28.01. 5:30 855 + 1,0
Fr, 28.01. 5:00 855 + 1,3
Fr, 28.01. 4:30 855 + 1,2
Ortszeit Schneehöhe (cm)
Fr, 28.01. 7:00 74
Fr, 28.01. 1:00 77
Do, 27.01. 19:00 72
Do, 27.01. 13:00 67
Do, 27.01. 7:00 67
Do, 27.01. 1:00 67
Mi, 26.01. 19:00 68
Mi, 26.01. 13:00 68
Ortszeit Schneehöhe (cm)
Fr, 28.01. 7:30 75
Fr, 28.01. 7:20 75
Fr, 28.01. 7:10 75
Fr, 28.01. 7:00 74
Fr, 28.01. 6:50 74
Fr, 28.01. 6:40 74
Fr, 28.01. 6:30 73
Fr, 28.01. 6:00 73
Fr, 28.01. 5:30 75
Fr, 28.01. 5:00 75
Fr, 28.01. 4:30 75
Link zu dieser Seite / Seite empfehlen

Das Wetter in ...